createdAt,value
2022-10-05T00:00:21.943Z,9.57
2022-10-05T00:02:45.406Z,9.55
2022-10-05T00:05:34.043Z,9.57
2022-10-05T00:08:03.110Z,9.55
2022-10-05T00:10:25.730Z,9.49
2022-10-05T00:12:49.307Z,9.53
2022-10-05T00:15:13.174Z,9.49
2022-10-05T00:17:35.672Z,9.42
2022-10-05T00:19:58.232Z,9.45
2022-10-05T00:22:29.938Z,9.43
2022-10-05T00:24:59.110Z,9.45
2022-10-05T00:27:27.112Z,9.40
2022-10-05T00:29:51.391Z,9.39
2022-10-05T00:32:14.200Z,9.36
2022-10-05T00:34:37.330Z,9.39
2022-10-05T00:36:59.936Z,9.42
2022-10-05T00:39:22.512Z,9.42
2022-10-05T00:41:53.630Z,9.39
2022-10-05T00:44:40.966Z,9.40
2022-10-05T00:47:51.160Z,9.29
2022-10-05T00:50:25.867Z,9.18
2022-10-05T00:53:22.698Z,9.15
2022-10-05T00:55:54.465Z,9.00
2022-10-05T00:58:30.531Z,8.92
2022-10-05T01:01:05.258Z,8.88
2022-10-05T01:03:47.691Z,8.77
2022-10-05T01:06:28.372Z,8.74
2022-10-05T01:09:02.506Z,8.80
2022-10-05T01:11:43.399Z,8.73
2022-10-05T01:14:15.000Z,8.67
2022-10-05T01:16:41.294Z,8.69
2022-10-05T01:19:06.851Z,8.67
2022-10-05T01:21:35.483Z,8.71
2022-10-05T01:24:28.594Z,8.73
2022-10-05T01:26:53.943Z,8.76
2022-10-05T01:29:32.547Z,8.70
2022-10-05T01:32:31.159Z,8.69
2022-10-05T01:35:22.942Z,8.66
2022-10-05T01:38:03.979Z,8.60
2022-10-05T01:41:04.667Z,8.64
2022-10-05T01:43:39.639Z,8.60
2022-10-05T01:46:08.083Z,8.60
2022-10-05T01:48:40.499Z,8.63
2022-10-05T01:51:14.696Z,8.62
2022-10-05T01:53:46.139Z,8.67
2022-10-05T01:56:12.390Z,8.62
2022-10-05T01:58:52.825Z,8.56
2022-10-05T02:01:18.307Z,8.60
2022-10-05T02:04:08.792Z,8.64
2022-10-05T02:06:37.633Z,8.62
2022-10-05T02:09:05.892Z,8.53
2022-10-05T02:11:28.485Z,8.48
2022-10-05T02:14:06.247Z,8.39
2022-10-05T02:16:48.962Z,8.38
2022-10-05T02:19:27.664Z,8.29
2022-10-05T02:22:05.413Z,8.28
2022-10-05T02:24:36.096Z,8.25
2022-10-05T02:26:58.948Z,8.20
2022-10-05T02:29:24.570Z,8.26
2022-10-05T02:32:00.198Z,8.31
2022-10-05T02:34:27.091Z,8.32
2022-10-05T02:37:06.703Z,8.38
2022-10-05T02:39:52.511Z,8.45
2022-10-05T02:42:27.844Z,8.49
2022-10-05T02:44:56.742Z,8.49
2022-10-05T02:47:56.712Z,8.48
2022-10-05T02:50:32.761Z,8.49
2022-10-05T02:53:16.760Z,8.49
2022-10-05T02:56:21.609Z,8.56
2022-10-05T02:59:19.476Z,8.53
2022-10-05T03:01:45.311Z,8.64
2022-10-05T03:04:14.833Z,8.64
2022-10-05T03:06:51.969Z,8.63
2022-10-05T03:09:18.226Z,8.73
2022-10-05T03:11:46.551Z,8.66
2022-10-05T03:14:26.235Z,8.62
2022-10-05T03:17:23.644Z,8.69
2022-10-05T03:20:00.262Z,8.70
2022-10-05T03:22:44.345Z,8.69
2022-10-05T03:25:24.980Z,8.69
2022-10-05T03:27:57.863Z,8.66
2022-10-05T03:30:23.440Z,8.45
2022-10-05T03:33:26.800Z,8.12
2022-10-05T03:36:02.237Z,8.18
2022-10-05T03:38:55.350Z,8.20
2022-10-05T03:41:28.191Z,8.09
2022-10-05T03:43:59.850Z,7.97
2022-10-05T03:46:56.452Z,7.93
2022-10-05T03:49:27.051Z,7.90
2022-10-05T03:51:59.997Z,7.88
2022-10-05T03:54:28.813Z,7.81
2022-10-05T03:57:10.323Z,7.63
2022-10-05T03:59:40.570Z,7.59
2022-10-05T04:02:31.298Z,7.59
2022-10-05T04:05:17.195Z,7.52
2022-10-05T04:08:12.965Z,7.36
2022-10-05T04:10:46.699Z,7.18
2022-10-05T04:13:15.957Z,7.20
2022-10-05T04:15:50.450Z,7.19
2022-10-05T04:18:29.065Z,7.12
2022-10-05T04:20:57.452Z,7.15
2022-10-05T04:23:41.208Z,7.14
2022-10-05T04:26:09.877Z,7.07
2022-10-05T04:28:47.324Z,7.05
2022-10-05T04:31:21.426Z,7.02
2022-10-05T04:33:54.360Z,6.98
2022-10-05T04:36:24.431Z,7.01
2022-10-05T04:39:05.347Z,6.99
2022-10-05T04:41:43.701Z,6.95
2022-10-05T04:44:12.407Z,6.94
2022-10-05T04:46:45.061Z,7.05
2022-10-05T04:49:46.784Z,7.04
2022-10-05T04:52:09.528Z,7.05
2022-10-05T04:54:52.313Z,6.95
2022-10-05T04:57:23.665Z,7.04
2022-10-05T05:00:05.732Z,7.09
2022-10-05T05:02:39.338Z,7.11
2022-10-05T05:05:20.381Z,7.14
2022-10-05T05:08:09.080Z,7.20
2022-10-05T05:10:38.894Z,7.32
2022-10-05T05:13:33.866Z,7.40
2022-10-05T05:16:16.201Z,7.50
2022-10-05T05:18:58.633Z,7.64
2022-10-05T05:21:38.057Z,7.73
2022-10-05T05:24:38.639Z,7.80
2022-10-05T05:27:35.883Z,7.93
2022-10-05T05:30:14.949Z,8.06
2022-10-05T05:32:57.874Z,8.18
2022-10-05T05:35:43.698Z,8.32
2022-10-05T05:38:51.422Z,8.35
2022-10-05T05:41:34.801Z,8.46
2022-10-05T05:44:06.680Z,8.53
2022-10-05T05:46:58.271Z,8.54
2022-10-05T05:49:38.148Z,8.56
2022-10-05T05:52:12.472Z,8.64
2022-10-05T05:54:52.551Z,8.83
2022-10-05T05:57:33.694Z,9.01
2022-10-05T06:00:29.069Z,9.35
2022-10-05T06:03:28.362Z,9.49
2022-10-05T06:06:00.741Z,9.69
2022-10-05T06:08:50.395Z,10.13
2022-10-05T06:11:40.267Z,10.20
2022-10-05T06:14:13.137Z,10.07
2022-10-05T06:16:49.728Z,10.07
2022-10-05T06:19:16.661Z,10.21
2022-10-05T06:21:48.336Z,10.25
2022-10-05T06:24:34.876Z,9.94
2022-10-05T06:27:17.435Z,9.91
2022-10-05T06:30:11.650Z,9.97
2022-10-05T06:33:13.620Z,10.18
2022-10-05T06:36:15.335Z,10.34
2022-10-05T06:39:09.345Z,10.46
2022-10-05T06:41:54.961Z,10.69
2022-10-05T06:44:49.250Z,10.75
2022-10-05T06:47:25.504Z,10.84
2022-10-05T06:50:18.612Z,10.80
2022-10-05T06:53:05.332Z,10.59
2022-10-05T06:55:41.254Z,10.81
2022-10-05T06:58:05.318Z,10.72
2022-10-05T07:00:49.735Z,10.96
2022-10-05T07:03:24.661Z,11.20
2022-10-05T07:06:37.940Z,11.20
2022-10-05T07:09:01.960Z,11.28
2022-10-05T07:11:37.912Z,11.16
2022-10-05T07:14:01.489Z,11.34
2022-10-05T07:17:01.486Z,11.55
2022-10-05T07:19:33.536Z,11.71
2022-10-05T07:22:15.130Z,11.74
2022-10-05T07:24:47.641Z,11.79
2022-10-05T07:27:18.513Z,11.89
2022-10-05T07:30:06.701Z,11.93
2022-10-05T07:32:34.976Z,11.94
2022-10-05T07:35:44.133Z,12.33
2022-10-05T07:38:40.519Z,13.70
2022-10-05T07:41:51.228Z,14.88
2022-10-05T07:44:29.086Z,16.05
2022-10-05T07:47:15.410Z,16.83
2022-10-05T07:50:01.749Z,15.86
2022-10-05T07:53:00.804Z,15.87
2022-10-05T07:55:27.471Z,16.00
2022-10-05T07:58:15.171Z,15.52
2022-10-05T08:01:22.107Z,14.77
2022-10-05T08:03:58.621Z,14.23
2022-10-05T08:06:42.374Z,14.16
2022-10-05T08:09:46.558Z,13.98
2022-10-05T08:12:37.763Z,13.54
2022-10-05T08:15:03.667Z,13.48
2022-10-05T08:17:40.356Z,13.67
2022-10-05T08:20:24.179Z,13.71
2022-10-05T08:22:51.459Z,13.57
2022-10-05T08:25:26.699Z,13.44
2022-10-05T08:28:15.478Z,13.61
2022-10-05T08:30:55.117Z,13.64
2022-10-05T08:33:20.278Z,13.98
2022-10-05T08:35:48.091Z,14.18
2022-10-05T08:38:18.553Z,14.28
2022-10-05T08:40:57.055Z,14.30
2022-10-05T08:43:31.744Z,14.46
2022-10-05T08:46:22.503Z,14.67
2022-10-05T08:49:21.007Z,14.97
2022-10-05T08:51:56.861Z,15.40
2022-10-05T08:54:39.314Z,15.29
2022-10-05T08:57:13.772Z,15.46
2022-10-05T08:59:54.619Z,15.57
2022-10-05T09:02:42.964Z,15.63
2022-10-05T09:05:36.565Z,15.45
2022-10-05T09:08:26.631Z,15.33
2022-10-05T09:10:55.269Z,15.16
2022-10-05T09:13:36.092Z,14.88
2022-10-05T09:16:20.566Z,14.81
2022-10-05T09:19:13.464Z,14.99
2022-10-05T09:21:48.959Z,15.26
2022-10-05T09:24:14.738Z,15.38
2022-10-05T09:26:40.777Z,15.53
2022-10-05T09:29:39.085Z,15.89
2022-10-05T09:32:16.760Z,16.00
2022-10-05T09:34:55.675Z,16.11
2022-10-05T09:37:28.732Z,16.32
2022-10-05T09:40:21.411Z,16.56
2022-10-05T09:43:02.514Z,16.76
2022-10-05T09:45:28.343Z,16.84
2022-10-05T09:48:09.715Z,17.24
2022-10-05T09:50:38.165Z,17.34
2022-10-05T09:53:24.831Z,17.15
2022-10-05T09:56:01.353Z,17.53
2022-10-05T09:58:33.376Z,17.49
2022-10-05T10:01:29.134Z,17.56
2022-10-05T10:04:07.174Z,17.45
2022-10-05T10:06:54.706Z,17.42
2022-10-05T10:09:38.503Z,17.42
2022-10-05T10:12:18.367Z,17.18
2022-10-05T10:15:18.450Z,17.25
2022-10-05T10:17:56.207Z,17.46
2022-10-05T10:20:26.948Z,17.28
2022-10-05T10:23:28.925Z,17.58
2022-10-05T10:26:09.223Z,17.82
2022-10-05T10:28:52.195Z,18.16
2022-10-05T10:31:34.170Z,18.00
2022-10-05T10:34:14.415Z,18.28
2022-10-05T10:36:52.397Z,18.06
2022-10-05T10:39:40.369Z,18.31
2022-10-05T10:42:29.955Z,18.30
2022-10-05T10:45:48.737Z,18.68
2022-10-05T10:48:54.613Z,18.71
2022-10-05T10:51:39.568Z,18.84
2022-10-05T10:54:56.254Z,18.49
2022-10-05T10:57:44.371Z,18.68
2022-10-05T11:00:27.216Z,18.92
2022-10-05T11:03:35.860Z,19.07
2022-10-05T11:06:13.380Z,18.89
2022-10-05T11:08:38.705Z,19.10
2022-10-05T11:11:15.811Z,19.34
2022-10-05T11:14:02.987Z,19.47
2022-10-05T11:16:46.817Z,19.38
2022-10-05T11:19:35.130Z,19.40
2022-10-05T11:22:21.989Z,19.50
2022-10-05T11:25:19.857Z,19.68
2022-10-05T11:28:04.629Z,19.50
2022-10-05T11:30:46.244Z,19.13
2022-10-05T11:33:14.378Z,18.88
2022-10-05T11:35:52.371Z,18.98
2022-10-05T11:38:58.297Z,19.22
2022-10-05T11:42:11.728Z,18.91
2022-10-05T11:45:12.045Z,18.91
2022-10-05T11:47:45.661Z,18.75
2022-10-05T11:50:21.184Z,18.68
2022-10-05T11:52:57.102Z,18.85
2022-10-05T11:55:42.746Z,18.86
2022-10-05T11:58:23.082Z,19.03
2022-10-05T12:01:06.480Z,19.31
2022-10-05T12:03:35.297Z,19.43
2022-10-05T12:06:26.861Z,19.16
2022-10-05T12:09:17.407Z,19.55
2022-10-05T12:11:57.890Z,19.53
2022-10-05T12:14:54.516Z,19.64
2022-10-05T12:17:38.663Z,19.57
2022-10-05T12:20:27.881Z,19.79
2022-10-05T12:22:58.729Z,19.81
2022-10-05T12:25:40.920Z,19.58
2022-10-05T12:28:11.456Z,19.58
2022-10-05T12:30:52.792Z,19.81
2022-10-05T12:33:18.789Z,19.51
2022-10-05T12:36:05.845Z,19.47
2022-10-05T12:38:33.559Z,19.78
2022-10-05T12:41:04.969Z,20.06
2022-10-05T12:43:47.689Z,20.02
2022-10-05T12:46:47.087Z,19.88
2022-10-05T12:49:37.330Z,20.06
2022-10-05T12:52:06.386Z,20.09
2022-10-05T12:54:36.800Z,20.33
2022-10-05T12:57:14.844Z,19.86
2022-10-05T12:59:59.572Z,19.62
2022-10-05T13:02:30.613Z,19.62
2022-10-05T13:05:11.643Z,19.61
2022-10-05T13:07:34.232Z,19.44
2022-10-05T13:10:03.017Z,19.40
2022-10-05T13:12:40.857Z,19.50
2022-10-05T13:15:34.483Z,19.54
2022-10-05T13:18:13.028Z,19.43
2022-10-05T13:20:46.957Z,19.57
2022-10-05T13:23:31.409Z,19.81
2022-10-05T13:26:08.829Z,19.54
2022-10-05T13:28:42.262Z,19.31
2022-10-05T13:31:27.027Z,19.07
2022-10-05T13:34:21.710Z,19.16
2022-10-05T13:36:47.044Z,19.02
2022-10-05T13:39:15.655Z,19.04
2022-10-05T13:41:59.735Z,19.17
2022-10-05T13:44:48.322Z,19.23
2022-10-05T13:47:16.990Z,19.38
2022-10-05T13:53:21.937Z,19.34
2022-10-05T13:56:06.744Z,19.47
2022-10-05T13:58:41.282Z,19.54
2022-10-05T14:01:13.360Z,19.37
2022-10-05T14:03:38.061Z,19.41
2022-10-05T14:06:05.490Z,19.44
2022-10-05T14:08:45.882Z,19.49
2022-10-05T14:11:23.497Z,19.41
2022-10-05T14:13:47.857Z,19.30
2022-10-05T14:16:13.281Z,19.00
2022-10-05T14:18:38.153Z,19.10
2022-10-05T14:21:12.795Z,18.86
2022-10-05T14:23:35.900Z,18.76
2022-10-05T14:25:58.466Z,18.89
2022-10-05T14:28:34.988Z,18.85
2022-10-05T14:31:16.237Z,18.65
2022-10-05T14:33:39.532Z,18.68
2022-10-05T14:36:02.547Z,18.73
2022-10-05T14:38:29.476Z,18.48
2022-10-05T14:41:19.852Z,18.38
2022-10-05T14:43:59.708Z,18.38
2022-10-05T14:46:29.577Z,18.37
2022-10-05T14:49:17.185Z,18.33
2022-10-05T14:51:42.176Z,18.33
2022-10-05T14:54:53.939Z,18.52
2022-10-05T14:57:36.151Z,18.59
2022-10-05T15:00:01.548Z,18.37
2022-10-05T15:02:54.204Z,18.26
2022-10-05T15:05:37.955Z,18.31
2022-10-05T15:08:17.384Z,18.13
2022-10-05T15:10:52.097Z,17.99
2022-10-05T15:13:21.936Z,17.79
2022-10-05T15:15:57.540Z,17.76
2022-10-05T15:18:34.917Z,17.66
2022-10-05T15:21:12.328Z,17.58
2022-10-05T15:23:53.229Z,17.41
2022-10-05T15:26:39.514Z,17.32
2022-10-05T15:29:14.163Z,17.42
2022-10-05T15:31:40.797Z,17.48
2022-10-05T15:34:09.418Z,17.35
2022-10-05T15:36:56.649Z,17.38
2022-10-05T15:39:35.888Z,17.25
2022-10-05T15:42:03.436Z,17.14
2022-10-05T15:44:47.382Z,17.21
2022-10-05T15:47:19.167Z,17.15
2022-10-05T15:50:21.680Z,17.08
2022-10-05T15:52:50.130Z,17.11
2022-10-05T15:55:44.023Z,17.00
2022-10-05T15:58:31.384Z,16.96
2022-10-05T16:01:03.805Z,16.65
2022-10-05T16:03:48.628Z,16.67
2022-10-05T16:06:51.820Z,16.67
2022-10-05T16:09:24.560Z,16.66
2022-10-05T16:12:09.820Z,16.55
2022-10-05T16:14:41.259Z,16.45
2022-10-05T16:17:26.948Z,16.36
2022-10-05T16:19:57.540Z,16.26
2022-10-05T16:22:43.402Z,16.02
2022-10-05T16:25:34.942Z,15.96
2022-10-05T16:28:05.326Z,16.08
2022-10-05T16:30:32.313Z,16.12
2022-10-05T16:33:11.989Z,15.98
2022-10-05T16:36:12.083Z,15.96
2022-10-05T16:38:54.290Z,15.97
2022-10-05T16:41:41.200Z,15.97
2022-10-05T16:44:37.764Z,15.98
2022-10-05T16:47:12.380Z,15.87
2022-10-05T16:49:46.908Z,15.76
2022-10-05T16:52:18.994Z,15.80
2022-10-05T16:55:06.324Z,15.71
2022-10-05T16:57:37.724Z,15.62
2022-10-05T17:00:20.505Z,15.56
2022-10-05T17:03:06.198Z,15.52
2022-10-05T17:05:31.677Z,15.45
2022-10-05T17:08:13.116Z,15.38
2022-10-05T17:10:57.084Z,15.32
2022-10-05T17:13:36.300Z,15.33
2022-10-05T17:16:10.762Z,15.32
2022-10-05T17:18:39.268Z,15.22
2022-10-05T17:21:25.415Z,15.12
2022-10-05T17:23:54.853Z,15.08
2022-10-05T17:26:59.706Z,15.05
2022-10-05T17:29:47.724Z,14.99
2022-10-05T17:32:16.094Z,14.91
2022-10-05T17:35:02.465Z,14.83
2022-10-05T17:38:15.492Z,14.85
2022-10-05T17:40:39.189Z,14.73
2022-10-05T17:43:17.191Z,14.70
2022-10-05T17:45:42.639Z,14.71
2022-10-05T17:48:08.951Z,14.66
2022-10-05T17:51:06.094Z,14.70
2022-10-05T17:53:54.113Z,14.60
2022-10-05T17:56:16.712Z,14.59
2022-10-05T17:58:54.716Z,14.55
2022-10-05T18:01:35.749Z,14.46
2022-10-05T18:04:13.518Z,14.41
2022-10-05T18:06:37.883Z,14.49
2022-10-05T18:09:20.979Z,14.37
2022-10-05T18:11:45.215Z,14.32
2022-10-05T18:14:16.035Z,14.30
2022-10-05T18:16:57.208Z,14.36
2022-10-05T18:19:22.517Z,14.29
2022-10-05T18:22:00.963Z,14.19
2022-10-05T18:24:29.868Z,14.19
2022-10-05T18:27:03.732Z,14.19
2022-10-05T18:29:44.771Z,14.19
2022-10-05T18:32:34.891Z,14.01
2022-10-05T18:35:08.157Z,14.01
2022-10-05T18:37:37.231Z,14.01
2022-10-05T18:40:31.677Z,13.95
2022-10-05T18:43:26.637Z,13.98
2022-10-05T18:46:26.823Z,13.97
2022-10-05T18:49:15.401Z,13.89
2022-10-05T18:51:56.768Z,13.94
2022-10-05T18:54:28.072Z,13.97
2022-10-05T18:56:52.928Z,13.92
2022-10-05T18:59:26.957Z,13.91
2022-10-05T19:01:54.508Z,13.88
2022-10-05T19:04:26.478Z,13.86
2022-10-05T19:06:49.024Z,13.89
2022-10-05T19:09:39.467Z,13.88
2022-10-05T19:12:18.199Z,13.81
2022-10-05T19:14:56.522Z,13.75
2022-10-05T19:17:41.240Z,13.73
2022-10-05T19:20:18.650Z,13.70
2022-10-05T19:23:27.518Z,13.65
2022-10-05T19:26:13.904Z,13.65
2022-10-05T19:28:56.099Z,13.67
2022-10-05T19:31:30.243Z,13.63
2022-10-05T19:34:09.063Z,13.48
2022-10-05T19:36:48.968Z,13.47
2022-10-05T19:39:37.151Z,13.40
2022-10-05T19:42:22.653Z,13.44
2022-10-05T19:45:18.744Z,13.43
2022-10-05T19:48:27.210Z,13.42
2022-10-05T19:50:55.944Z,13.47
2022-10-05T19:53:25.588Z,13.37
2022-10-05T19:55:48.208Z,13.33
2022-10-05T19:58:32.288Z,13.33
2022-10-05T20:00:58.418Z,13.33
2022-10-05T20:03:29.813Z,13.30
2022-10-05T20:05:54.626Z,13.28
2022-10-05T20:08:19.898Z,13.17
2022-10-05T20:10:43.204Z,13.16
2022-10-05T20:13:08.657Z,13.16
2022-10-05T20:15:54.783Z,13.15
2022-10-05T20:18:55.993Z,13.09
2022-10-05T20:21:39.637Z,13.00
2022-10-05T20:24:20.315Z,12.89
2022-10-05T20:27:08.799Z,12.84
2022-10-05T20:29:40.579Z,12.84
2022-10-05T20:32:15.283Z,12.78
2022-10-05T20:34:46.788Z,12.79
2022-10-05T20:37:11.537Z,12.78
2022-10-05T20:39:34.112Z,12.74
2022-10-05T20:41:56.853Z,12.75
2022-10-05T20:44:19.544Z,12.74
2022-10-05T20:46:42.195Z,12.67
2022-10-05T20:49:04.875Z,12.61
2022-10-05T20:51:30.618Z,12.51
2022-10-05T20:53:56.211Z,12.45
2022-10-05T20:56:20.125Z,12.50
2022-10-05T20:58:44.230Z,12.58
2022-10-05T21:01:19.977Z,12.48
2022-10-05T21:03:42.883Z,12.48
2022-10-05T21:06:11.111Z,12.44
2022-10-05T21:08:36.995Z,12.36
2022-10-05T21:10:59.487Z,12.37
2022-10-05T21:13:22.052Z,12.41
2022-10-05T21:15:44.916Z,12.34
2022-10-05T21:18:07.390Z,12.30
2022-10-05T21:20:29.965Z,12.23
2022-10-05T21:22:52.528Z,12.19
2022-10-05T21:25:15.108Z,12.19
2022-10-05T21:27:41.308Z,12.20
2022-10-05T21:30:06.501Z,12.13
2022-10-05T21:32:29.159Z,12.16
2022-10-05T21:34:51.699Z,12.10
2022-10-05T21:37:15.547Z,12.02
2022-10-05T21:39:38.910Z,12.06
2022-10-05T21:42:01.599Z,11.89
2022-10-05T21:44:24.053Z,11.96
2022-10-05T21:46:47.137Z,11.92
2022-10-05T21:49:09.864Z,11.85
2022-10-05T21:51:35.380Z,11.83
2022-10-05T21:54:02.780Z,11.87
2022-10-05T21:56:30.367Z,11.78
2022-10-05T21:58:52.884Z,11.78
2022-10-05T22:01:20.146Z,11.81
2022-10-05T22:03:45.137Z,11.85
2022-10-05T22:06:08.152Z,11.85
2022-10-05T22:08:35.073Z,11.71
2022-10-05T22:10:59.020Z,11.71
2022-10-05T22:13:26.755Z,11.78
2022-10-05T22:15:49.550Z,11.66
2022-10-05T22:18:17.602Z,11.50
2022-10-05T22:20:41.101Z,11.54
2022-10-05T22:23:07.537Z,11.55
2022-10-05T22:25:33.811Z,11.52
2022-10-05T22:27:56.495Z,11.50
2022-10-05T22:30:20.055Z,11.62
2022-10-05T22:32:43.975Z,11.66
2022-10-05T22:35:11.326Z,11.65
2022-10-05T22:37:38.187Z,11.75
2022-10-05T22:40:02.696Z,11.75
2022-10-05T22:42:25.888Z,11.54
2022-10-05T22:44:48.528Z,11.58
2022-10-05T22:47:11.354Z,11.69
2022-10-05T22:49:34.004Z,11.58
2022-10-05T22:51:56.591Z,11.48
2022-10-05T22:54:19.270Z,11.57
2022-10-05T22:56:41.915Z,11.57
2022-10-05T22:59:05.623Z,11.57
2022-10-05T23:01:29.811Z,11.52
2022-10-05T23:03:52.460Z,11.45
2022-10-05T23:06:17.833Z,11.50
2022-10-05T23:08:41.672Z,11.59
2022-10-05T23:11:12.859Z,11.68
2022-10-05T23:13:35.738Z,11.74
2022-10-05T23:15:58.256Z,11.71
2022-10-05T23:18:20.821Z,11.78
2022-10-05T23:20:43.458Z,11.94
2022-10-05T23:23:06.062Z,11.99
2022-10-05T23:25:28.636Z,12.00
2022-10-05T23:27:51.573Z,11.96
2022-10-05T23:30:14.306Z,11.96
2022-10-05T23:32:41.444Z,11.85
2022-10-05T23:35:04.427Z,11.68
2022-10-05T23:37:28.025Z,11.65
2022-10-05T23:39:50.548Z,11.58
2022-10-05T23:42:14.377Z,11.61
2022-10-05T23:44:36.881Z,11.68
2022-10-05T23:46:59.568Z,11.76
2022-10-05T23:49:22.217Z,11.72
2022-10-05T23:51:45.158Z,11.66
2022-10-05T23:54:07.656Z,11.69
2022-10-05T23:56:30.327Z,11.65
2022-10-05T23:58:52.815Z,11.66
